createdAt,value
2017-09-27T00:00:39.146Z,51.23
2017-09-27T00:03:06.606Z,45.20
2017-09-27T00:05:34.126Z,42.93
2017-09-27T00:08:01.622Z,38.03
2017-09-27T00:10:29.102Z,43.17
2017-09-27T00:12:57.358Z,40.80
2017-09-27T00:15:24.826Z,51.13
2017-09-27T00:17:52.288Z,46.17
2017-09-27T00:20:19.753Z,45.83
2017-09-27T00:22:48.006Z,39.33
2017-09-27T00:25:16.257Z,68.20
2017-09-27T00:27:43.718Z,52.40
2017-09-27T00:30:11.200Z,55.37
2017-09-27T00:32:38.725Z,55.00
2017-09-27T00:35:06.181Z,42.67
2017-09-27T00:37:33.761Z,39.33
2017-09-27T00:40:01.225Z,53.30
2017-09-27T00:42:28.695Z,39.73
2017-09-27T00:44:56.916Z,38.00
2017-09-27T00:47:24.394Z,36.00
2017-09-27T00:49:51.857Z,35.77
2017-09-27T00:52:19.320Z,33.00
2017-09-27T00:54:46.882Z,32.57
2017-09-27T00:57:14.346Z,31.87
2017-09-27T00:59:43.301Z,40.70
2017-09-27T01:02:10.774Z,35.17
2017-09-27T01:04:38.337Z,38.40
2017-09-27T01:07:05.793Z,39.60
2017-09-27T01:09:33.258Z,39.73
2017-09-27T01:12:01.489Z,52.23
2017-09-27T01:14:28.943Z,85.83
2017-09-27T01:16:56.419Z,226.00
2017-09-27T01:19:23.887Z,328.03
2017-09-27T01:21:51.374Z,72.40
2017-09-27T01:24:18.834Z,50.07
2017-09-27T01:26:46.293Z,50.60
2017-09-27T01:29:14.535Z,51.73
2017-09-27T01:31:41.982Z,45.90
2017-09-27T01:34:09.457Z,42.20
2017-09-27T01:36:36.920Z,45.73
2017-09-27T01:39:04.478Z,67.43
2017-09-27T01:41:33.449Z,63.07
2017-09-27T01:44:00.908Z,54.20
2017-09-27T01:46:28.377Z,43.27
2017-09-27T01:48:55.833Z,45.00
2017-09-27T01:51:23.285Z,46.60
2017-09-27T01:53:50.752Z,56.13
2017-09-27T01:56:18.205Z,70.67
2017-09-27T01:58:45.665Z,265.13
2017-09-27T02:01:13.114Z,77.67
2017-09-27T02:03:40.581Z,68.67
2017-09-27T02:06:08.138Z,63.87
2017-09-27T02:08:35.601Z,65.57
2017-09-27T02:11:03.146Z,54.30
2017-09-27T02:13:30.614Z,52.60
2017-09-27T02:15:58.069Z,48.73
2017-09-27T02:18:25.529Z,58.87
2017-09-27T02:20:53.073Z,68.20
2017-09-27T02:23:20.542Z,48.70
2017-09-27T02:25:48.095Z,48.78
2017-09-27T02:28:15.563Z,48.97
2017-09-27T02:30:43.035Z,37.47
2017-09-27T02:33:11.286Z,43.70
2017-09-27T02:35:38.749Z,45.20
2017-09-27T02:38:06.985Z,118.15
2017-09-27T02:40:34.474Z,69.07
2017-09-27T02:43:01.927Z,81.18
2017-09-27T02:45:29.393Z,91.87
2017-09-27T02:47:56.850Z,123.17
2017-09-27T02:50:24.410Z,130.35
2017-09-27T02:52:51.866Z,85.97
2017-09-27T02:55:19.338Z,172.20
2017-09-27T02:57:47.574Z,144.30
2017-09-27T03:00:15.060Z,162.55
2017-09-27T03:02:42.922Z,120.13
2017-09-27T03:05:10.473Z,117.90
2017-09-27T03:07:37.943Z,113.20
2017-09-27T03:10:05.489Z,129.05
2017-09-27T03:12:32.962Z,123.72
2017-09-27T03:15:01.148Z,146.57
2017-09-27T03:17:28.657Z,118.03
2017-09-27T03:19:56.233Z,90.43
2017-09-27T03:22:23.698Z,111.15
2017-09-27T03:24:51.163Z,96.68
2017-09-27T03:27:19.393Z,95.32
2017-09-27T03:29:46.853Z,83.82
2017-09-27T03:32:14.313Z,68.05
2017-09-27T03:34:41.778Z,75.90
2017-09-27T03:37:09.246Z,56.17
2017-09-27T03:39:36.704Z,59.83
2017-09-27T03:42:04.175Z,61.90
2017-09-27T03:44:31.625Z,64.53
2017-09-27T03:46:59.087Z,57.40
2017-09-27T03:49:26.640Z,54.23
2017-09-27T03:51:54.116Z,37.50
2017-09-27T03:54:21.665Z,47.67
2017-09-27T03:56:49.145Z,40.70
2017-09-27T03:59:17.357Z,34.30
2017-09-27T04:01:44.838Z,25.57
2017-09-27T04:04:12.294Z,28.53
2017-09-27T04:06:39.749Z,35.13
2017-09-27T04:09:07.227Z,41.60
2017-09-27T04:11:34.685Z,46.77
2017-09-27T04:14:02.925Z,49.00
2017-09-27T04:16:30.390Z,52.17
2017-09-27T04:18:57.857Z,56.77
2017-09-27T04:21:25.322Z,51.85
2017-09-27T04:23:52.788Z,66.77
2017-09-27T04:26:20.245Z,53.97
2017-09-27T04:28:47.711Z,50.83
2017-09-27T04:31:15.962Z,54.50
2017-09-27T04:33:43.649Z,45.20
2017-09-27T04:36:11.573Z,43.03
2017-09-27T04:38:39.039Z,36.13
2017-09-27T04:41:06.505Z,36.53
2017-09-27T04:43:34.063Z,47.83
2017-09-27T04:46:01.517Z,51.73
2017-09-27T04:48:28.981Z,49.90
2017-09-27T04:50:56.434Z,43.47
2017-09-27T04:53:23.889Z,52.77
2017-09-27T04:55:51.337Z,44.40
2017-09-27T04:58:18.802Z,43.03
2017-09-27T05:00:46.359Z,43.90
2017-09-27T05:03:13.809Z,43.13
2017-09-27T05:05:41.369Z,41.97
2017-09-27T05:08:08.930Z,28.60
2017-09-27T05:10:36.390Z,32.63
2017-09-27T05:13:03.850Z,27.83
2017-09-27T05:15:31.322Z,25.62
2017-09-27T05:17:58.778Z,36.23
2017-09-27T05:20:27.009Z,32.13
2017-09-27T05:22:54.495Z,25.13
2017-09-27T05:25:21.958Z,27.87
2017-09-27T05:27:49.501Z,33.53
2017-09-27T05:30:16.963Z,40.83
2017-09-27T05:32:44.418Z,36.42
2017-09-27T05:35:11.892Z,34.55
2017-09-27T05:37:40.119Z,37.07
2017-09-27T05:40:07.598Z,31.00
2017-09-27T05:42:35.070Z,31.02
2017-09-27T05:45:02.540Z,30.40
2017-09-27T05:47:30.562Z,25.67
2017-09-27T05:49:58.030Z,27.13
2017-09-27T05:52:25.499Z,26.90
2017-09-27T05:54:52.957Z,31.07
2017-09-27T05:57:20.425Z,39.50
2017-09-27T05:59:47.901Z,44.60
2017-09-27T06:02:16.151Z,43.07
2017-09-27T06:04:43.619Z,41.70
2017-09-27T06:07:11.079Z,42.97
2017-09-27T06:09:38.548Z,36.80
2017-09-27T06:12:06.782Z,38.93
2017-09-27T06:14:34.245Z,51.30
2017-09-27T06:17:01.705Z,42.50
2017-09-27T06:19:29.174Z,40.13
2017-09-27T06:21:56.629Z,44.77
2017-09-27T06:24:24.121Z,38.60
2017-09-27T06:26:51.549Z,37.20
2017-09-27T06:29:19.031Z,38.50
2017-09-27T06:31:47.238Z,33.67
2017-09-27T06:34:14.720Z,39.57
2017-09-27T06:36:42.188Z,53.20
2017-09-27T06:39:09.649Z,42.67
2017-09-27T06:41:38.635Z,44.73
2017-09-27T06:44:06.103Z,36.67
2017-09-27T06:46:33.567Z,36.27
2017-09-27T06:49:01.826Z,30.97
2017-09-27T06:51:29.293Z,24.23
2017-09-27T06:53:56.759Z,21.83
2017-09-27T06:56:24.994Z,22.83
2017-09-27T06:58:52.459Z,18.53
2017-09-27T07:01:19.925Z,17.10
2017-09-27T07:03:47.385Z,17.60
2017-09-27T07:06:14.951Z,18.97
2017-09-27T07:08:42.402Z,18.60
2017-09-27T07:11:09.875Z,21.40
2017-09-27T07:13:37.650Z,22.20
2017-09-27T07:16:05.883Z,19.87
2017-09-27T07:18:33.339Z,20.10
2017-09-27T07:21:00.814Z,23.50
2017-09-27T07:23:28.384Z,21.90
2017-09-27T07:25:56.648Z,23.23
2017-09-27T07:28:24.090Z,19.53
2017-09-27T07:30:51.569Z,28.87
2017-09-27T07:33:19.030Z,24.43
2017-09-27T07:35:47.259Z,35.27
2017-09-27T07:38:14.721Z,30.30
2017-09-27T07:40:42.179Z,30.10
2017-09-27T07:43:09.643Z,34.07
2017-09-27T07:45:37.099Z,31.40
2017-09-27T07:48:04.578Z,31.13
2017-09-27T07:50:32.030Z,31.07
2017-09-27T07:53:00.277Z,29.50
2017-09-27T07:55:27.749Z,33.97
2017-09-27T07:57:55.218Z,31.00
2017-09-27T08:00:22.683Z,29.40
2017-09-27T08:02:50.232Z,32.83
2017-09-27T08:05:17.678Z,30.13
2017-09-27T08:07:45.147Z,27.47
2017-09-27T08:10:12.617Z,28.03
2017-09-27T08:12:40.077Z,34.60
2017-09-27T08:15:07.529Z,30.87
2017-09-27T08:17:34.990Z,33.53
2017-09-27T08:20:03.236Z,32.63
2017-09-27T08:22:30.714Z,32.13
2017-09-27T08:24:59.673Z,33.17
2017-09-27T08:27:27.144Z,33.90
2017-09-27T08:29:54.701Z,36.23
2017-09-27T08:32:22.170Z,38.40
2017-09-27T08:34:49.625Z,38.20
2017-09-27T08:37:17.176Z,36.17
2017-09-27T08:39:44.646Z,34.80
2017-09-27T08:42:12.112Z,39.27
2017-09-27T08:44:39.568Z,38.53
2017-09-27T08:47:07.110Z,37.93
2017-09-27T08:49:34.574Z,35.13
2017-09-27T08:52:02.039Z,37.80
2017-09-27T08:54:29.499Z,31.07
2017-09-27T08:56:57.035Z,45.50
2017-09-27T08:59:24.498Z,35.67
2017-09-27T09:01:51.956Z,36.77
2017-09-27T09:04:19.429Z,35.23
2017-09-27T09:06:47.653Z,37.37
2017-09-27T09:09:15.123Z,37.93
2017-09-27T09:11:42.590Z,44.80
2017-09-27T09:14:10.078Z,44.20
2017-09-27T09:16:38.313Z,39.90
2017-09-27T09:19:05.757Z,46.47
2017-09-27T09:21:33.232Z,43.13
2017-09-27T09:24:00.699Z,39.57
2017-09-27T09:26:28.170Z,50.07
2017-09-27T09:28:55.626Z,40.30
2017-09-27T09:31:23.093Z,42.17
2017-09-27T09:33:51.319Z,44.60
2017-09-27T09:36:18.785Z,38.43
2017-09-27T09:38:46.368Z,41.07
2017-09-27T09:41:13.834Z,45.40
2017-09-27T09:43:41.295Z,40.67
2017-09-27T09:46:09.537Z,39.43
2017-09-27T09:48:36.994Z,45.67
2017-09-27T09:51:04.474Z,41.60
2017-09-27T09:53:31.931Z,43.00
2017-09-27T09:55:59.393Z,40.40
2017-09-27T09:58:26.850Z,39.13
2017-09-27T10:00:55.090Z,39.10
2017-09-27T10:03:22.560Z,36.43
2017-09-27T10:05:50.123Z,36.87
2017-09-27T10:08:17.590Z,36.70
2017-09-27T10:10:45.046Z,37.63
2017-09-27T10:13:12.506Z,37.03
2017-09-27T10:15:39.966Z,43.10
2017-09-27T10:18:07.520Z,40.23
2017-09-27T10:20:34.978Z,37.80
2017-09-27T10:23:02.530Z,22.30
2017-09-27T10:25:29.985Z,32.43
2017-09-27T10:27:57.545Z,28.60
2017-09-27T10:30:25.003Z,26.93
2017-09-27T10:32:52.476Z,24.67
2017-09-27T10:35:20.697Z,24.40
2017-09-27T10:37:48.163Z,23.10
2017-09-27T10:40:15.622Z,18.10
2017-09-27T10:42:43.086Z,23.03
2017-09-27T10:45:10.542Z,27.03
2017-09-27T10:47:38.105Z,20.37
2017-09-27T10:50:05.564Z,21.33
2017-09-27T10:52:33.116Z,19.30
2017-09-27T10:55:00.581Z,22.23
2017-09-27T10:57:28.827Z,26.20
2017-09-27T10:59:56.290Z,21.20
2017-09-27T11:02:23.749Z,21.93
2017-09-27T11:04:51.219Z,21.53
2017-09-27T11:07:18.694Z,20.00
2017-09-27T11:09:46.150Z,21.47
2017-09-27T11:12:13.614Z,23.60
2017-09-27T11:14:41.845Z,23.17
2017-09-27T11:17:09.330Z,23.90
2017-09-27T11:19:36.789Z,20.27
2017-09-27T11:22:04.263Z,22.20
2017-09-27T11:24:32.497Z,38.20
2017-09-27T11:26:59.956Z,22.27
2017-09-27T11:29:27.418Z,22.93
2017-09-27T11:31:54.878Z,22.43
2017-09-27T11:34:22.342Z,19.37
2017-09-27T11:36:49.800Z,18.30
2017-09-27T11:39:17.267Z,18.13
2017-09-27T11:41:44.724Z,19.77
2017-09-27T11:44:12.185Z,18.40
2017-09-27T11:46:39.641Z,17.67
2017-09-27T11:49:07.103Z,20.80
2017-09-27T11:51:35.396Z,22.73
2017-09-27T11:54:03.546Z,19.97
2017-09-27T11:56:31.002Z,19.53
2017-09-27T11:58:58.464Z,20.17
2017-09-27T12:01:25.910Z,17.67
2017-09-27T12:03:53.379Z,20.60
2017-09-27T12:06:20.923Z,19.63
2017-09-27T12:08:48.478Z,17.23
2017-09-27T12:11:15.930Z,16.17
2017-09-27T12:13:43.402Z,18.90
2017-09-27T12:16:10.864Z,18.87
2017-09-27T12:18:38.340Z,19.07
2017-09-27T12:21:06.565Z,18.60
2017-09-27T12:23:34.041Z,17.53
2017-09-27T12:26:01.510Z,17.70
2017-09-27T12:28:30.470Z,16.73
2017-09-27T12:30:57.939Z,18.70
2017-09-27T12:33:25.410Z,16.87
2017-09-27T12:35:53.644Z,15.63
2017-09-27T12:38:21.106Z,18.03
2017-09-27T12:40:48.590Z,15.87
2017-09-27T12:43:16.054Z,18.47
2017-09-27T12:45:43.526Z,17.50
2017-09-27T12:48:10.973Z,16.10
2017-09-27T12:50:39.208Z,19.43
2017-09-27T12:53:06.684Z,16.63
2017-09-27T12:55:34.143Z,18.73
2017-09-27T12:58:01.703Z,16.63
2017-09-27T13:00:29.271Z,14.40
2017-09-27T13:02:56.742Z,16.50
2017-09-27T13:05:24.210Z,15.20
2017-09-27T13:07:52.432Z,20.77
2017-09-27T13:10:19.915Z,13.40
2017-09-27T13:12:48.137Z,14.80
2017-09-27T13:15:15.597Z,12.10
2017-09-27T13:17:43.046Z,11.03
2017-09-27T13:20:10.510Z,11.60
2017-09-27T13:22:38.014Z,15.80
2017-09-27T13:25:05.473Z,9.20
2017-09-27T13:27:33.034Z,9.23
2017-09-27T13:30:00.475Z,7.27
2017-09-27T13:32:27.938Z,12.40
2017-09-27T13:34:55.401Z,10.10
2017-09-27T13:37:22.858Z,11.23
2017-09-27T13:39:50.319Z,9.87
2017-09-27T13:42:18.545Z,10.03
2017-09-27T13:44:45.994Z,11.20
2017-09-27T13:47:13.456Z,10.03
2017-09-27T13:49:40.909Z,10.97
2017-09-27T13:52:08.381Z,10.40
2017-09-27T13:54:35.838Z,10.83
2017-09-27T13:57:03.303Z,10.37
2017-09-27T13:59:30.746Z,8.53
2017-09-27T14:01:58.219Z,11.73
2017-09-27T14:04:25.669Z,12.13
2017-09-27T14:06:53.130Z,9.63
2017-09-27T14:09:20.586Z,11.93
2017-09-27T14:11:48.066Z,9.20
2017-09-27T14:14:15.539Z,9.47
2017-09-27T14:16:43.758Z,8.13
2017-09-27T14:19:11.225Z,9.30
2017-09-27T14:21:38.714Z,8.13
2017-09-27T14:24:06.165Z,9.10
2017-09-27T14:26:34.437Z,8.83
2017-09-27T14:29:01.897Z,8.23
2017-09-27T14:31:29.346Z,8.97
2017-09-27T14:33:56.797Z,8.03
2017-09-27T14:36:24.275Z,8.63
2017-09-27T14:38:51.721Z,7.13
2017-09-27T14:41:19.177Z,8.77
2017-09-27T14:43:46.632Z,10.73
2017-09-27T14:46:14.082Z,6.03
2017-09-27T14:48:41.647Z,6.13
2017-09-27T14:51:09.093Z,7.80
2017-09-27T14:53:36.554Z,10.80
2017-09-27T14:56:04.014Z,7.70
2017-09-27T14:58:31.470Z,7.47
2017-09-27T15:00:59.700Z,7.90
2017-09-27T15:03:27.154Z,8.20
2017-09-27T15:05:54.597Z,6.77
2017-09-27T15:08:22.825Z,8.63
2017-09-27T15:10:50.278Z,6.33
2017-09-27T15:13:17.748Z,6.13
2017-09-27T15:15:45.199Z,7.73
2017-09-27T15:18:12.758Z,8.67
2017-09-27T15:20:40.233Z,8.60
2017-09-27T15:23:07.683Z,7.20
2017-09-27T15:25:35.133Z,6.50
2017-09-27T15:28:02.581Z,9.17
2017-09-27T15:30:30.038Z,12.73
2017-09-27T15:32:57.481Z,5.87
2017-09-27T15:35:24.951Z,6.60
2017-09-27T15:37:52.406Z,8.17
2017-09-27T15:40:19.866Z,5.97
2017-09-27T15:42:47.328Z,7.23
2017-09-27T15:45:14.782Z,6.00
2017-09-27T15:47:42.334Z,6.40
2017-09-27T15:50:09.798Z,5.90
2017-09-27T15:52:37.252Z,7.77
2017-09-27T15:55:04.705Z,5.80
2017-09-27T15:57:32.155Z,7.47
2017-09-27T15:59:59.624Z,7.13
2017-09-27T16:02:27.192Z,7.60
2017-09-27T16:04:54.751Z,7.13
2017-09-27T16:07:22.202Z,7.60
2017-09-27T16:09:49.661Z,8.57
2017-09-27T16:12:17.125Z,7.97
2017-09-27T16:14:45.350Z,6.77
2017-09-27T16:17:12.793Z,6.93
2017-09-27T16:19:40.258Z,7.57
2017-09-27T16:22:07.711Z,8.23
2017-09-27T16:24:35.170Z,8.53
2017-09-27T16:27:02.669Z,14.53
2017-09-27T16:29:30.138Z,8.40
2017-09-27T16:31:57.682Z,8.03
2017-09-27T16:34:25.142Z,8.40
2017-09-27T16:36:52.609Z,9.90
2017-09-27T16:39:20.061Z,8.07
2017-09-27T16:41:47.521Z,8.53
2017-09-27T16:44:15.068Z,8.43
2017-09-27T16:46:42.533Z,10.53
2017-09-27T16:49:09.991Z,11.17
2017-09-27T16:51:37.449Z,9.27
2017-09-27T16:54:04.910Z,15.93
2017-09-27T16:56:33.877Z,11.40
2017-09-27T16:59:01.346Z,11.23
2017-09-27T17:01:28.810Z,11.00
2017-09-27T17:03:56.259Z,11.83
2017-09-27T17:06:23.812Z,11.73
2017-09-27T17:08:51.271Z,13.70
2017-09-27T17:11:18.725Z,13.00
2017-09-27T17:13:46.193Z,12.50
2017-09-27T17:16:13.658Z,12.60
2017-09-27T17:18:41.198Z,11.60
2017-09-27T17:21:08.662Z,13.90
2017-09-27T17:23:36.130Z,10.90
2017-09-27T17:26:03.598Z,13.30
2017-09-27T17:28:31.831Z,12.27
2017-09-27T17:30:59.293Z,9.80
2017-09-27T17:33:27.625Z,11.33
2017-09-27T17:35:55.087Z,11.93
2017-09-27T17:38:22.566Z,11.23
2017-09-27T17:40:50.026Z,15.90
2017-09-27T17:43:17.481Z,13.17
2017-09-27T17:45:44.942Z,12.90
2017-09-27T17:48:12.400Z,11.53
2017-09-27T17:50:39.858Z,11.70
2017-09-27T17:53:07.330Z,11.90
2017-09-27T17:55:34.793Z,13.17
2017-09-27T17:58:02.359Z,12.07
2017-09-27T18:00:29.826Z,11.07
2017-09-27T18:02:58.049Z,12.67
2017-09-27T18:05:31.333Z,11.43
2017-09-27T18:08:04.514Z,11.70
2017-09-27T18:10:37.514Z,10.53
2017-09-27T18:13:21.813Z,10.33
2017-09-27T18:15:55.905Z,11.60
2017-09-27T18:18:29.177Z,11.73
2017-09-27T18:20:56.648Z,12.40
2017-09-27T18:23:24.110Z,11.83
2017-09-27T18:25:51.578Z,11.33
2017-09-27T18:28:20.062Z,17.67
2017-09-27T18:30:47.531Z,15.07
2017-09-27T18:33:14.982Z,17.30
2017-09-27T18:35:42.445Z,14.77
2017-09-27T18:38:10.676Z,18.70
2017-09-27T18:40:38.148Z,16.43
2017-09-27T18:43:05.606Z,18.83
2017-09-27T18:45:33.165Z,19.03
2017-09-27T18:48:00.633Z,17.50
2017-09-27T18:50:28.093Z,19.57
2017-09-27T18:52:55.554Z,22.30
2017-09-27T18:55:23.098Z,19.67
2017-09-27T18:57:50.567Z,17.80
2017-09-27T19:00:18.037Z,15.60
2017-09-27T19:02:45.486Z,20.43
2017-09-27T19:05:13.029Z,17.07
2017-09-27T19:07:40.482Z,18.40
2017-09-27T19:10:07.948Z,18.33
2017-09-27T19:12:35.405Z,16.57
2017-09-27T19:15:02.962Z,17.20
2017-09-27T19:17:30.425Z,17.77
2017-09-27T19:19:57.910Z,19.30
2017-09-27T19:22:26.129Z,21.23
2017-09-27T19:24:53.582Z,18.70
2017-09-27T19:27:21.062Z,18.10
2017-09-27T19:29:48.634Z,22.60
2017-09-27T19:32:16.099Z,19.47
2017-09-27T19:34:44.314Z,18.10
2017-09-27T19:37:11.778Z,20.13
2017-09-27T19:39:39.249Z,16.43
2017-09-27T19:42:06.714Z,17.20
2017-09-27T19:44:34.185Z,16.80
2017-09-27T19:47:01.657Z,17.10
2017-09-27T19:49:29.881Z,18.80
2017-09-27T19:51:57.355Z,15.93
2017-09-27T19:54:24.805Z,17.87
2017-09-27T19:56:52.285Z,17.13
2017-09-27T19:59:22.206Z,19.27
2017-09-27T20:01:49.677Z,17.93
2017-09-27T20:04:17.893Z,17.47
2017-09-27T20:06:45.357Z,18.33
2017-09-27T20:09:12.834Z,21.30
2017-09-27T20:11:40.328Z,19.00
2017-09-27T20:14:08.566Z,19.70
2017-09-27T20:16:36.025Z,20.77
2017-09-27T20:19:03.580Z,18.80
2017-09-27T20:21:31.037Z,24.93
2017-09-27T20:23:58.509Z,20.00
2017-09-27T20:26:25.953Z,14.90
2017-09-27T20:28:53.419Z,16.57
2017-09-27T20:31:20.882Z,17.33
2017-09-27T20:33:48.356Z,19.93
2017-09-27T20:36:16.579Z,19.43
2017-09-27T20:38:44.162Z,20.97
2017-09-27T20:41:11.622Z,19.03
2017-09-27T20:43:39.088Z,19.80
2017-09-27T20:46:06.543Z,19.87
2017-09-27T20:48:34.003Z,19.63
2017-09-27T20:51:01.459Z,26.30
2017-09-27T20:53:29.694Z,20.23
2017-09-27T20:55:57.164Z,24.17
2017-09-27T20:58:24.618Z,20.63
2017-09-27T21:00:52.085Z,22.90
2017-09-27T21:03:19.537Z,18.50
2017-09-27T21:05:47.006Z,20.30
2017-09-27T21:08:15.240Z,18.23
2017-09-27T21:10:42.709Z,20.53
2017-09-27T21:13:10.178Z,24.10
2017-09-27T21:15:37.654Z,21.60
2017-09-27T21:18:05.106Z,25.00
2017-09-27T21:20:32.569Z,21.30
2017-09-27T21:23:00.028Z,23.00
2017-09-27T21:25:27.489Z,23.90
2017-09-27T21:27:54.946Z,24.07
2017-09-27T21:30:23.186Z,23.77
2017-09-27T21:32:50.637Z,22.80
2017-09-27T21:35:18.094Z,21.87
2017-09-27T21:37:45.550Z,27.27
2017-09-27T21:40:13.019Z,23.57
2017-09-27T21:42:40.488Z,25.10
2017-09-27T21:45:07.950Z,23.10
2017-09-27T21:47:35.500Z,23.93
2017-09-27T21:50:02.967Z,24.20
2017-09-27T21:52:30.422Z,22.40
2017-09-27T21:54:57.891Z,20.03
2017-09-27T21:57:25.337Z,23.10
2017-09-27T22:02:34.850Z,22.90
2017-09-27T22:05:02.321Z,24.97
2017-09-27T22:07:29.789Z,22.10
2017-09-27T22:09:57.241Z,22.17
2017-09-27T22:14:58.607Z,24.37
2017-09-27T22:17:26.062Z,23.37
2017-09-27T22:19:53.527Z,27.20
2017-09-27T22:22:20.998Z,22.17
2017-09-27T22:24:48.449Z,23.60
2017-09-27T22:27:15.913Z,20.60
2017-09-27T22:29:43.374Z,26.17
2017-09-27T22:32:11.613Z,26.57
2017-09-27T22:34:39.986Z,22.70
2017-09-27T22:37:07.444Z,25.17
2017-09-27T22:39:34.900Z,22.93
2017-09-27T22:42:02.374Z,22.83
2017-09-27T22:44:29.834Z,23.47
2017-09-27T22:46:57.295Z,24.97
2017-09-27T22:49:24.749Z,23.53
2017-09-27T22:51:52.222Z,25.10
2017-09-27T22:54:19.767Z,28.43
2017-09-27T22:56:47.255Z,27.10
2017-09-27T22:59:15.478Z,30.77
2017-09-27T23:01:42.958Z,25.10
2017-09-27T23:04:10.434Z,28.17
2017-09-27T23:06:38.672Z,31.33
2017-09-27T23:09:06.137Z,32.20
2017-09-27T23:11:33.606Z,34.00
2017-09-27T23:14:01.065Z,34.33
2017-09-27T23:16:28.527Z,34.80
2017-09-27T23:18:55.992Z,36.37
2017-09-27T23:21:24.222Z,38.30
2017-09-27T23:23:51.691Z,32.10
2017-09-27T23:26:19.147Z,31.50
2017-09-27T23:28:46.709Z,34.30
2017-09-27T23:31:14.178Z,31.67
2017-09-27T23:33:41.651Z,38.67
2017-09-27T23:36:09.873Z,39.07
2017-09-27T23:38:37.354Z,39.40
2017-09-27T23:41:04.809Z,28.67
2017-09-27T23:43:32.278Z,32.50
2017-09-27T23:45:59.746Z,33.10
2017-09-27T23:48:28.001Z,31.43
2017-09-27T23:50:55.483Z,37.50
2017-09-27T23:53:23.731Z,36.00
2017-09-27T23:55:51.198Z,36.30
2017-09-27T23:58:18.663Z,35.33
